Terminal Aerodrome Forecast
Issued by NWS Blacksburg, VA

Home | Current Version | Previous Version | Text Only | Print | Product List | Glossary On
Versions: 1 2 3 4 5 6 7 8 9 10 11 12 13 14 15 16 17 18 19 20 21 22 23 24 25 26 27 28 29 30 31 32 33 34 35 36 37 38 39 40 41 42 43 44 45 46
862
FTUS41 KRNK 231140
TAFLYH
TAF
KLYH 231140Z 2312/2412 04012G25KT 3SM RA BKN008 OVC015
      TEMPO 2312/2315 2SM +SHRA SCT008 OVC020
     FM231700 04008KT 5SM -RA OVC008
     FM231900 01008KT 6SM BR OVC008
     FM240200 34008KT P6SM BKN015
     FM240600 33008KT P6SM BKN040
     FM241100 34007G18KT P6SM SCT040=

USA.gov is the U.S. government's official web portal to all federal, state and local government web resources and services.